LFT weather

La Floresta Airport
Yaguara, Huila Department, Colombia

Public forecast

Using degrees Celsius for public forecast. Weather courtesy of forecast.io.

Closest aviation weather report (METAR) to La Floresta Airport

Report is more than 2 hours old.

Closest report is Benito Salas Airport, 25.6 nm (47.4 km) NE. Retrieved 2020/02/22 03:00 UTC (3 hours ago):

SKNV 220300Z VRB02KT 9999 FEW013 SCT110 28/20 A2990

Closest aviation forecast (TAF) to La Floresta Airport

Closest forecast is Alfonso Bonilla Aragon International Airport, 73.1 nm (135.3 km) NW. Retrieved 2020-02-22 00:40 UTC (5 hours ago):

TAF SKCL 212230Z 2200/2224 18007KT 9999 SCT020 BKN090 BECMG 2202/2204 VRB03KT TEMPO 2205/2207 6000 DZRA SCT017 BKN090 TX29/2219Z TN19/2210Z